sensor_id;sensor_type;location;lat;lon;timestamp;P1;durP1;ratioP1;P2;durP2;ratioP2
43646;SDS011;56152;49.996;18.980;2023-09-08T00:03:44;13.98;;;10.48;;
43646;SDS011;56152;49.996;18.980;2023-09-08T00:08:48;16.83;;;11.35;;
43646;SDS011;56152;49.996;18.980;2023-09-08T00:13:52;16.08;;;10.75;;
43646;SDS011;56152;49.996;18.980;2023-09-08T00:18:54;16.15;;;10.57;;
43646;SDS011;56152;49.996;18.980;2023-09-08T00:23:57;12.90;;;9.35;;
43646;SDS011;56152;49.996;18.980;2023-09-08T00:29:02;12.52;;;9.73;;
43646;SDS011;56152;49.996;18.980;2023-09-08T00:34:07;16.15;;;10.77;;
43646;SDS011;56152;49.996;18.980;2023-09-08T00:39:10;12.48;;;9.80;;
43646;SDS011;56152;49.996;18.980;2023-09-08T00:44:14;12.15;;;8.63;;
43646;SDS011;56152;49.996;18.980;2023-09-08T02:57:18;17.20;;;12.95;;
43646;SDS011;56152;49.996;18.980;2023-09-08T03:02:20;16.50;;;11.73;;
43646;SDS011;56152;49.996;18.980;2023-09-08T03:07:22;13.25;;;10.32;;
43646;SDS011;56152;49.996;18.980;2023-09-08T03:12:25;15.13;;;10.05;;
43646;SDS011;56152;49.996;18.980;2023-09-08T03:17:27;15.05;;;9.95;;
43646;SDS011;56152;49.996;18.980;2023-09-08T03:22:30;16.25;;;12.45;;
43646;SDS011;56152;49.996;18.980;2023-09-08T03:27:35;24.90;;;14.32;;
43646;SDS011;56152;49.996;18.980;2023-09-08T03:32:38;14.57;;;12.25;;
43646;SDS011;56152;49.996;18.980;2023-09-08T03:37:40;18.70;;;13.55;;
43646;SDS011;56152;49.996;18.980;2023-09-08T03:42:44;14.35;;;10.73;;
43646;SDS011;56152;49.996;18.980;2023-09-08T03:47:46;16.05;;;11.73;;
43646;SDS011;56152;49.996;18.980;2023-09-08T03:52:49;13.77;;;9.90;;
43646;SDS011;56152;49.996;18.980;2023-09-08T03:57:55;15.55;;;10.98;;
43646;SDS011;56152;49.996;18.980;2023-09-08T04:08:26;20.63;;;13.00;;
43646;SDS011;56152;49.996;18.980;2023-09-08T04:13:37;17.15;;;12.23;;
43646;SDS011;56152;49.996;18.980;2023-09-08T04:18:39;12.10;;;9.77;;
43646;SDS011;56152;49.996;18.980;2023-09-08T04:23:42;13.30;;;9.98;;
43646;SDS011;56152;49.996;18.980;2023-09-08T04:28:46;18.17;;;11.07;;
43646;SDS011;56152;49.996;18.980;2023-09-08T04:39:22;12.00;;;9.07;;
43646;SDS011;56152;49.996;18.980;2023-09-08T04:49:56;17.30;;;9.05;;
43646;SDS011;56152;49.996;18.980;2023-09-08T05:01:03;14.40;;;7.85;;
43646;SDS011;56152;49.996;18.980;2023-09-08T05:06:09;17.35;;;10.43;;
43646;SDS011;56152;49.996;18.980;2023-09-08T05:11:12;15.20;;;8.48;;
43646;SDS011;56152;49.996;18.980;2023-09-08T05:16:20;16.38;;;8.73;;
43646;SDS011;56152;49.996;18.980;2023-09-08T05:21:36;16.50;;;10.95;;
43646;SDS011;56152;49.996;18.980;2023-09-08T05:26:43;12.10;;;7.97;;
43646;SDS011;56152;49.996;18.980;2023-09-08T05:31:51;14.43;;;9.27;;
43646;SDS011;56152;49.996;18.980;2023-09-08T05:36:54;12.02;;;8.38;;
43646;SDS011;56152;49.996;18.980;2023-09-08T05:41:56;13.63;;;7.95;;
43646;SDS011;56152;49.996;18.980;2023-09-08T05:47:02;12.82;;;8.52;;
43646;SDS011;56152;49.996;18.980;2023-09-08T05:52:04;15.85;;;9.57;;
43646;SDS011;56152;49.996;18.980;2023-09-08T05:57:09;12.52;;;8.88;;
43646;SDS011;56152;49.996;18.980;2023-09-08T06:02:12;12.50;;;8.18;;
43646;SDS011;56152;49.996;18.980;2023-09-08T06:07:17;11.48;;;7.60;;
43646;SDS011;56152;49.996;18.980;2023-09-08T06:12:19;14.00;;;8.35;;
43646;SDS011;56152;49.996;18.980;2023-09-08T06:17:23;9.13;;;7.40;;
43646;SDS011;56152;49.996;18.980;2023-09-08T06:22:25;12.65;;;8.13;;
43646;SDS011;56152;49.996;18.980;2023-09-08T06:27:28;12.75;;;7.28;;
43646;SDS011;56152;49.996;18.980;2023-09-08T06:32:32;13.77;;;8.38;;
43646;SDS011;56152;49.996;18.980;2023-09-08T06:37:35;15.93;;;8.48;;
43646;SDS011;56152;49.996;18.980;2023-09-08T06:42:41;12.23;;;7.65;;
43646;SDS011;56152;49.996;18.980;2023-09-08T06:47:46;9.40;;;6.50;;
43646;SDS011;56152;49.996;18.980;2023-09-08T06:52:54;8.75;;;6.82;;
43646;SDS011;56152;49.996;18.980;2023-09-08T06:57:57;13.27;;;7.40;;
43646;SDS011;56152;49.996;18.980;2023-09-08T07:03:04;10.45;;;6.95;;
43646;SDS011;56152;49.996;18.980;2023-09-08T07:08:06;11.07;;;7.28;;
43646;SDS011;56152;49.996;18.980;2023-09-08T07:13:08;16.38;;;7.63;;
43646;SDS011;56152;49.996;18.980;2023-09-08T07:18:13;13.65;;;7.03;;
43646;SDS011;56152;49.996;18.980;2023-09-08T07:23:16;12.68;;;7.00;;
43646;SDS011;56152;49.996;18.980;2023-09-08T07:28:18;11.13;;;6.47;;
43646;SDS011;56152;49.996;18.980;2023-09-08T07:33:23;8.68;;;5.53;;
43646;SDS011;56152;49.996;18.980;2023-09-08T07:44:01;17.42;;;8.48;;
43646;SDS011;56152;49.996;18.980;2023-09-08T07:49:19;8.80;;;7.03;;
43646;SDS011;56152;49.996;18.980;2023-09-08T07:54:22;11.25;;;6.95;;
43646;SDS011;56152;49.996;18.980;2023-09-08T07:59:29;7.95;;;6.78;;
43646;SDS011;56152;49.996;18.980;2023-09-08T08:04:34;11.52;;;6.70;;
43646;SDS011;56152;49.996;18.980;2023-09-08T08:09:36;8.27;;;5.47;;
43646;SDS011;56152;49.996;18.980;2023-09-08T08:14:38;6.28;;;4.97;;
43646;SDS011;56152;49.996;18.980;2023-09-08T08:19:41;9.05;;;5.60;;
43646;SDS011;56152;49.996;18.980;2023-09-08T08:24:44;10.20;;;6.28;;
43646;SDS011;56152;49.996;18.980;2023-09-08T08:35:28;13.13;;;5.82;;
43646;SDS011;56152;49.996;18.980;2023-09-08T08:40:31;13.70;;;5.60;;
43646;SDS011;56152;49.996;18.980;2023-09-08T08:45:34;6.57;;;5.10;;
43646;SDS011;56152;49.996;18.980;2023-09-08T08:50:48;19.52;;;6.82;;
43646;SDS011;56152;49.996;18.980;2023-09-08T08:55:51;12.00;;;6.10;;
43646;SDS011;56152;49.996;18.980;2023-09-08T09:01:04;16.95;;;6.28;;
43646;SDS011;56152;49.996;18.980;2023-09-08T09:06:12;8.18;;;5.97;;
43646;SDS011;56152;49.996;18.980;2023-09-08T09:11:17;9.15;;;5.68;;
43646;SDS011;56152;49.996;18.980;2023-09-08T09:16:19;8.85;;;5.45;;
43646;SDS011;56152;49.996;18.980;2023-09-08T09:21:24;7.35;;;6.28;;
43646;SDS011;56152;49.996;18.980;2023-09-08T09:26:41;7.53;;;4.90;;
43646;SDS011;56152;49.996;18.980;2023-09-08T09:31:51;8.52;;;5.35;;
43646;SDS011;56152;49.996;18.980;2023-09-08T09:36:57;7.70;;;4.38;;
43646;SDS011;56152;49.996;18.980;2023-09-08T09:41:59;8.77;;;5.15;;
43646;SDS011;56152;49.996;18.980;2023-09-08T09:52:33;5.72;;;4.43;;
43646;SDS011;56152;49.996;18.980;2023-09-08T09:57:49;8.30;;;4.82;;
43646;SDS011;56152;49.996;18.980;2023-09-08T10:02:52;6.68;;;4.68;;
43646;SDS011;56152;49.996;18.980;2023-09-08T10:07:57;7.60;;;5.25;;
43646;SDS011;56152;49.996;18.980;2023-09-08T10:13:01;9.95;;;5.20;;
43646;SDS011;56152;49.996;18.980;2023-09-08T10:18:09;8.27;;;5.13;;
43646;SDS011;56152;49.996;18.980;2023-09-08T10:23:18;6.45;;;4.82;;
43646;SDS011;56152;49.996;18.980;2023-09-08T10:28:29;9.68;;;4.65;;
43646;SDS011;56152;49.996;18.980;2023-09-08T10:33:33;9.00;;;5.40;;
43646;SDS011;56152;49.996;18.980;2023-09-08T10:38:39;7.13;;;4.18;;
43646;SDS011;56152;49.996;18.980;2023-09-08T10:43:44;9.43;;;4.37;;
43646;SDS011;56152;49.996;18.980;2023-09-08T10:49:06;16.50;;;5.05;;
43646;SDS011;56152;49.996;18.980;2023-09-08T10:54:12;10.25;;;5.00;;
43646;SDS011;56152;49.996;18.980;2023-09-08T11:00:10;6.10;;;4.82;;
43646;SDS011;56152;49.996;18.980;2023-09-08T11:05:20;5.30;;;4.32;;
43646;SDS011;56152;49.996;18.980;2023-09-08T11:10:27;6.70;;;4.88;;
43646;SDS011;56152;49.996;18.980;2023-09-08T11:15:33;7.88;;;4.53;;
43646;SDS011;56152;49.996;18.980;2023-09-08T11:20:39;7.85;;;4.20;;
43646;SDS011;56152;49.996;18.980;2023-09-08T11:25:46;8.07;;;4.47;;
43646;SDS011;56152;49.996;18.980;2023-09-08T11:30:51;7.53;;;4.63;;
43646;SDS011;56152;49.996;18.980;2023-09-08T11:35:53;11.38;;;5.47;;
43646;SDS011;56152;49.996;18.980;2023-09-08T11:40:58;9.05;;;4.53;;
43646;SDS011;56152;49.996;18.980;2023-09-08T11:46:00;8.82;;;4.10;;
43646;SDS011;56152;49.996;18.980;2023-09-08T11:51:05;6.35;;;4.60;;
43646;SDS011;56152;49.996;18.980;2023-09-08T11:56:10;5.25;;;4.10;;
43646;SDS011;56152;49.996;18.980;2023-09-08T12:01:12;10.57;;;4.88;;
43646;SDS011;56152;49.996;18.980;2023-09-08T12:06:17;5.50;;;4.82;;
43646;SDS011;56152;49.996;18.980;2023-09-08T12:11:23;6.53;;;4.88;;
43646;SDS011;56152;49.996;18.980;2023-09-08T12:16:26;6.93;;;4.43;;
43646;SDS011;56152;49.996;18.980;2023-09-08T12:21:28;10.30;;;4.70;;
43646;SDS011;56152;49.996;18.980;2023-09-08T12:26:33;6.60;;;4.03;;
43646;SDS011;56152;49.996;18.980;2023-09-08T12:31:41;6.55;;;4.28;;
43646;SDS011;56152;49.996;18.980;2023-09-08T12:36:43;8.00;;;3.80;;
43646;SDS011;56152;49.996;18.980;2023-09-08T12:41:48;6.35;;;3.63;;
43646;SDS011;56152;49.996;18.980;2023-09-08T12:46:55;4.97;;;3.90;;
43646;SDS011;56152;49.996;18.980;2023-09-08T12:51:57;13.38;;;5.05;;
43646;SDS011;56152;49.996;18.980;2023-09-08T12:57:01;8.30;;;4.38;;
43646;SDS011;56152;49.996;18.980;2023-09-08T13:02:04;7.57;;;4.60;;
43646;SDS011;56152;49.996;18.980;2023-09-08T13:07:07;7.38;;;4.93;;
43646;SDS011;56152;49.996;18.980;2023-09-08T13:12:12;5.63;;;4.15;;
43646;SDS011;56152;49.996;18.980;2023-09-08T13:17:14;7.43;;;5.35;;
43646;SDS011;56152;49.996;18.980;2023-09-08T13:22:17;7.22;;;4.22;;
43646;SDS011;56152;49.996;18.980;2023-09-08T13:27:28;6.50;;;4.88;;
43646;SDS011;56152;49.996;18.980;2023-09-08T13:32:32;6.53;;;4.53;;
43646;SDS011;56152;49.996;18.980;2023-09-08T13:43:12;6.40;;;5.00;;
43646;SDS011;56152;49.996;18.980;2023-09-08T13:48:15;6.70;;;4.15;;
43646;SDS011;56152;49.996;18.980;2023-09-08T13:53:17;11.23;;;5.18;;
43646;SDS011;56152;49.996;18.980;2023-09-08T13:58:22;9.13;;;5.65;;
43646;SDS011;56152;49.996;18.980;2023-09-08T14:03:24;6.03;;;4.47;;
43646;SDS011;56152;49.996;18.980;2023-09-08T14:13:34;8.45;;;5.15;;
43646;SDS011;56152;49.996;18.980;2023-09-08T14:18:37;7.38;;;5.13;;
43646;SDS011;56152;49.996;18.980;2023-09-08T14:23:43;16.60;;;5.93;;
43646;SDS011;56152;49.996;18.980;2023-09-08T14:28:47;7.68;;;5.00;;
43646;SDS011;56152;49.996;18.980;2023-09-08T14:33:49;8.93;;;4.97;;
43646;SDS011;56152;49.996;18.980;2023-09-08T14:38:54;9.98;;;5.30;;
43646;SDS011;56152;49.996;18.980;2023-09-08T14:44:11;8.90;;;5.07;;
43646;SDS011;56152;49.996;18.980;2023-09-08T14:49:13;12.60;;;5.50;;
43646;SDS011;56152;49.996;18.980;2023-09-08T14:54:15;14.73;;;4.80;;
43646;SDS011;56152;49.996;18.980;2023-09-08T14:59:20;7.00;;;4.13;;
43646;SDS011;56152;49.996;18.980;2023-09-08T15:04:24;7.10;;;5.03;;
43646;SDS011;56152;49.996;18.980;2023-09-08T15:09:29;10.27;;;5.05;;
43646;SDS011;56152;49.996;18.980;2023-09-08T15:14:35;9.23;;;5.25;;
43646;SDS011;56152;49.996;18.980;2023-09-08T15:19:44;7.57;;;4.72;;
43646;SDS011;56152;49.996;18.980;2023-09-08T15:24:46;6.88;;;4.50;;
43646;SDS011;56152;49.996;18.980;2023-09-08T15:35:31;6.43;;;4.22;;
43646;SDS011;56152;49.996;18.980;2023-09-08T15:40:38;7.22;;;4.72;;
43646;SDS011;56152;49.996;18.980;2023-09-08T15:45:55;12.85;;;6.35;;
43646;SDS011;56152;49.996;18.980;2023-09-08T15:56:17;9.38;;;6.05;;
43646;SDS011;56152;49.996;18.980;2023-09-08T16:01:19;10.63;;;6.22;;
43646;SDS011;56152;49.996;18.980;2023-09-08T16:06:44;13.82;;;5.80;;
43646;SDS011;56152;49.996;18.980;2023-09-08T16:11:52;10.32;;;5.03;;
43646;SDS011;56152;49.996;18.980;2023-09-08T16:16:56;17.77;;;6.75;;
43646;SDS011;56152;49.996;18.980;2023-09-08T16:22:11;30.52;;;6.65;;
43646;SDS011;56152;49.996;18.980;2023-09-08T16:27:14;16.33;;;7.68;;
43646;SDS011;56152;49.996;18.980;2023-09-08T16:32:20;13.15;;;7.18;;
43646;SDS011;56152;49.996;18.980;2023-09-08T16:37:24;30.05;;;7.07;;
43646;SDS011;56152;49.996;18.980;2023-09-08T16:42:28;17.05;;;9.05;;
43646;SDS011;56152;49.996;18.980;2023-09-08T16:47:33;86.55;;;32.08;;
43646;SDS011;56152;49.996;18.980;2023-09-08T16:52:38;46.08;;;18.52;;
43646;SDS011;56152;49.996;18.980;2023-09-08T16:57:40;28.40;;;11.00;;
43646;SDS011;56152;49.996;18.980;2023-09-08T17:02:45;18.75;;;8.38;;
43646;SDS011;56152;49.996;18.980;2023-09-08T17:07:49;20.88;;;7.60;;
43646;SDS011;56152;49.996;18.980;2023-09-08T17:12:56;23.20;;;7.82;;
43646;SDS011;56152;49.996;18.980;2023-09-08T17:18:00;20.38;;;8.02;;
43646;SDS011;56152;49.996;18.980;2023-09-08T17:23:05;24.65;;;8.35;;
43646;SDS011;56152;49.996;18.980;2023-09-08T17:28:09;24.25;;;8.13;;
43646;SDS011;56152;49.996;18.980;2023-09-08T17:38:20;16.70;;;5.53;;
43646;SDS011;56152;49.996;18.980;2023-09-08T17:43:22;14.20;;;5.60;;
43646;SDS011;56152;49.996;18.980;2023-09-08T17:48:28;9.68;;;5.35;;
43646;SDS011;56152;49.996;18.980;2023-09-08T17:53:32;10.35;;;6.75;;
43646;SDS011;56152;49.996;18.980;2023-09-08T18:03:57;13.80;;;6.55;;
43646;SDS011;56152;49.996;18.980;2023-09-08T18:09:04;9.98;;;6.90;;
43646;SDS011;56152;49.996;18.980;2023-09-08T18:14:09;14.98;;;8.85;;
43646;SDS011;56152;49.996;18.980;2023-09-08T18:24:47;17.60;;;10.50;;
43646;SDS011;56152;49.996;18.980;2023-09-08T18:29:50;21.42;;;12.77;;
43646;SDS011;56152;49.996;18.980;2023-09-08T18:34:52;22.95;;;14.07;;
43646;SDS011;56152;49.996;18.980;2023-09-08T18:40:02;22.25;;;14.57;;
43646;SDS011;56152;49.996;18.980;2023-09-08T18:45:05;22.75;;;15.57;;
43646;SDS011;56152;49.996;18.980;2023-09-08T18:50:11;23.02;;;15.93;;
43646;SDS011;56152;49.996;18.980;2023-09-08T18:55:16;26.42;;;16.38;;
43646;SDS011;56152;49.996;18.980;2023-09-08T19:00:32;32.95;;;16.42;;
43646;SDS011;56152;49.996;18.980;2023-09-08T19:05:34;32.13;;;18.30;;
43646;SDS011;56152;49.996;18.980;2023-09-08T19:10:45;30.88;;;17.90;;
43646;SDS011;56152;49.996;18.980;2023-09-08T19:15:47;30.45;;;19.08;;
43646;SDS011;56152;49.996;18.980;2023-09-08T19:20:55;37.83;;;24.25;;
43646;SDS011;56152;49.996;18.980;2023-09-08T19:31:36;30.40;;;20.10;;
43646;SDS011;56152;49.996;18.980;2023-09-08T19:47:20;32.25;;;18.48;;
43646;SDS011;56152;49.996;18.980;2023-09-08T19:52:37;31.55;;;19.55;;
43646;SDS011;56152;49.996;18.980;2023-09-08T19:57:42;35.08;;;18.73;;
43646;SDS011;56152;49.996;18.980;2023-09-08T20:02:44;30.73;;;17.52;;
43646;SDS011;56152;49.996;18.980;2023-09-08T20:08:07;32.67;;;18.83;;
43646;SDS011;56152;49.996;18.980;2023-09-08T20:13:10;24.23;;;16.70;;
43646;SDS011;56152;49.996;18.980;2023-09-08T20:18:16;28.48;;;17.63;;
43646;SDS011;56152;49.996;18.980;2023-09-08T20:23:30;27.00;;;16.15;;
43646;SDS011;56152;49.996;18.980;2023-09-08T20:28:39;31.05;;;19.02;;
43646;SDS011;56152;49.996;18.980;2023-09-08T20:33:41;23.40;;;15.33;;
43646;SDS011;56152;49.996;18.980;2023-09-08T20:44:23;20.80;;;13.75;;
43646;SDS011;56152;49.996;18.980;2023-09-08T20:49:24;19.45;;;14.52;;
43646;SDS011;56152;49.996;18.980;2023-09-08T20:54:27;19.38;;;13.70;;
43646;SDS011;56152;49.996;18.980;2023-09-08T20:59:35;22.45;;;14.32;;
43646;SDS011;56152;49.996;18.980;2023-09-08T21:04:37;24.75;;;14.23;;
43646;SDS011;56152;49.996;18.980;2023-09-08T21:09:44;18.58;;;13.70;;
43646;SDS011;56152;49.996;18.980;2023-09-08T21:14:52;20.58;;;13.60;;
43646;SDS011;56152;49.996;18.980;2023-09-08T21:19:54;16.77;;;12.57;;
43646;SDS011;56152;49.996;18.980;2023-09-08T21:24:58;19.08;;;12.05;;
43646;SDS011;56152;49.996;18.980;2023-09-08T21:30:05;17.52;;;13.30;;
43646;SDS011;56152;49.996;18.980;2023-09-08T21:35:10;23.02;;;12.98;;
43646;SDS011;56152;49.996;18.980;2023-09-08T21:40:24;23.13;;;13.93;;
43646;SDS011;56152;49.996;18.980;2023-09-08T21:45:28;16.77;;;12.48;;
43646;SDS011;56152;49.996;18.980;2023-09-08T21:50:33;17.92;;;12.60;;
43646;SDS011;56152;49.996;18.980;2023-09-08T22:00:53;27.08;;;16.45;;
43646;SDS011;56152;49.996;18.980;2023-09-08T22:05:56;19.25;;;13.18;;
43646;SDS011;56152;49.996;18.980;2023-09-08T22:11:01;17.85;;;13.48;;
43646;SDS011;56152;49.996;18.980;2023-09-08T22:16:14;17.95;;;12.57;;
43646;SDS011;56152;49.996;18.980;2023-09-08T22:21:25;22.40;;;13.15;;
43646;SDS011;56152;49.996;18.980;2023-09-08T22:26:30;18.13;;;11.80;;
43646;SDS011;56152;49.996;18.980;2023-09-08T22:31:36;13.77;;;10.70;;
43646;SDS011;56152;49.996;18.980;2023-09-08T22:36:41;17.20;;;12.27;;
43646;SDS011;56152;49.996;18.980;2023-09-08T22:41:43;16.40;;;12.60;;
43646;SDS011;56152;49.996;18.980;2023-09-08T22:46:48;17.27;;;11.68;;
43646;SDS011;56152;49.996;18.980;2023-09-08T22:51:52;15.90;;;11.10;;
43646;SDS011;56152;49.996;18.980;2023-09-08T22:56:55;13.23;;;10.45;;
43646;SDS011;56152;49.996;18.980;2023-09-08T23:02:07;13.32;;;10.57;;
43646;SDS011;56152;49.996;18.980;2023-09-08T23:07:11;18.25;;;11.40;;
43646;SDS011;56152;49.996;18.980;2023-09-08T23:12:15;16.55;;;11.93;;
43646;SDS011;56152;49.996;18.980;2023-09-08T23:17:20;15.32;;;11.15;;
43646;SDS011;56152;49.996;18.980;2023-09-08T23:22:24;15.30;;;12.32;;
43646;SDS011;56152;49.996;18.980;2023-09-08T23:27:32;16.90;;;11.77;;
43646;SDS011;56152;49.996;18.980;2023-09-08T23:32:39;16.67;;;11.13;;
43646;SDS011;56152;49.996;18.980;2023-09-08T23:37:43;16.75;;;11.25;;
43646;SDS011;56152;49.996;18.980;2023-09-08T23:42:47;14.02;;;11.15;;
43646;SDS011;56152;49.996;18.980;2023-09-08T23:47:52;15.60;;;10.30;;
43646;SDS011;56152;49.996;18.980;2023-09-08T23:52:55;17.90;;;10.60;;
43646;SDS011;56152;49.996;18.980;2023-09-08T23:57:57;16.25;;;11.02;;
